sensor_id;sensor_type;location;lat;lon;timestamp;temperature;humidity
67141;DHT22;54058;52.010;5.546;2023-04-06T00:02:12;5.60;66.00
67141;DHT22;54058;52.010;5.546;2023-04-06T00:04:37;5.60;66.10
67141;DHT22;54058;52.010;5.546;2023-04-06T00:07:03;5.50;66.20
67141;DHT22;54058;52.010;5.546;2023-04-06T00:09:28;5.50;66.20
67141;DHT22;54058;52.010;5.546;2023-04-06T00:11:54;5.50;66.60
67141;DHT22;54058;52.010;5.546;2023-04-06T00:14:20;5.50;66.90
67141;DHT22;54058;52.010;5.546;2023-04-06T00:16:45;5.50;66.40
67141;DHT22;54058;52.010;5.546;2023-04-06T00:19:11;5.50;66.80
67141;DHT22;54058;52.010;5.546;2023-04-06T00:21:36;5.50;66.70
67141;DHT22;54058;52.010;5.546;2023-04-06T00:24:02;5.50;66.60
67141;DHT22;54058;52.010;5.546;2023-04-06T00:26:29;5.50;66.80
67141;DHT22;54058;52.010;5.546;2023-04-06T00:28:54;5.50;67.40
67141;DHT22;54058;52.010;5.546;2023-04-06T00:31:20;5.50;66.60
67141;DHT22;54058;52.010;5.546;2023-04-06T00:33:47;5.50;66.70
67141;DHT22;54058;52.010;5.546;2023-04-06T00:36:13;5.50;66.60
67141;DHT22;54058;52.010;5.546;2023-04-06T00:38:38;5.50;66.50
67141;DHT22;54058;52.010;5.546;2023-04-06T00:41:04;5.50;66.50
67141;DHT22;54058;52.010;5.546;2023-04-06T00:43:30;5.50;66.60
67141;DHT22;54058;52.010;5.546;2023-04-06T00:45:55;5.50;66.60
67141;DHT22;54058;52.010;5.546;2023-04-06T00:48:20;5.50;66.60
67141;DHT22;54058;52.010;5.546;2023-04-06T00:50:46;5.50;66.80
67141;DHT22;54058;52.010;5.546;2023-04-06T00:53:11;5.50;66.80
67141;DHT22;54058;52.010;5.546;2023-04-06T00:55:38;5.50;66.70
67141;DHT22;54058;52.010;5.546;2023-04-06T00:58:04;5.50;66.90
67141;DHT22;54058;52.010;5.546;2023-04-06T01:00:29;5.50;66.80
67141;DHT22;54058;52.010;5.546;2023-04-06T01:02:55;5.50;66.70
67141;DHT22;54058;52.010;5.546;2023-04-06T01:05:21;5.40;66.70
67141;DHT22;54058;52.010;5.546;2023-04-06T01:07:46;5.40;66.50
67141;DHT22;54058;52.010;5.546;2023-04-06T01:10:21;5.50;66.70
67141;DHT22;54058;52.010;5.546;2023-04-06T01:12:47;5.50;66.60
67141;DHT22;54058;52.010;5.546;2023-04-06T01:15:12;5.50;66.60
67141;DHT22;54058;52.010;5.546;2023-04-06T01:17:38;5.50;66.60
67141;DHT22;54058;52.010;5.546;2023-04-06T01:20:04;5.40;66.30
67141;DHT22;54058;52.010;5.546;2023-04-06T01:22:30;5.40;66.40
67141;DHT22;54058;52.010;5.546;2023-04-06T01:24:55;5.40;66.50
67141;DHT22;54058;52.010;5.546;2023-04-06T01:27:21;5.40;66.70
67141;DHT22;54058;52.010;5.546;2023-04-06T01:29:47;5.50;66.70
67141;DHT22;54058;52.010;5.546;2023-04-06T01:32:12;5.50;66.70
67141;DHT22;54058;52.010;5.546;2023-04-06T01:34:38;5.50;66.70
67141;DHT22;54058;52.010;5.546;2023-04-06T01:37:03;5.50;66.60
67141;DHT22;54058;52.010;5.546;2023-04-06T01:39:29;5.50;66.30
67141;DHT22;54058;52.010;5.546;2023-04-06T01:41:55;5.50;66.10
67141;DHT22;54058;52.010;5.546;2023-04-06T01:44:20;5.50;65.90
67141;DHT22;54058;52.010;5.546;2023-04-06T01:46:46;5.40;65.60
67141;DHT22;54058;52.010;5.546;2023-04-06T01:49:12;5.30;65.80
67141;DHT22;54058;52.010;5.546;2023-04-06T01:51:37;5.30;66.20
67141;DHT22;54058;52.010;5.546;2023-04-06T01:54:03;5.40;66.20
67141;DHT22;54058;52.010;5.546;2023-04-06T01:56:29;5.30;66.30
67141;DHT22;54058;52.010;5.546;2023-04-06T01:58:55;5.40;66.50
67141;DHT22;54058;52.010;5.546;2023-04-06T02:01:21;5.40;66.00
67141;DHT22;54058;52.010;5.546;2023-04-06T02:03:47;5.30;65.90
67141;DHT22;54058;52.010;5.546;2023-04-06T02:06:12;5.30;66.10
67141;DHT22;54058;52.010;5.546;2023-04-06T02:08:38;5.30;65.70
67141;DHT22;54058;52.010;5.546;2023-04-06T02:11:03;5.30;65.70
67141;DHT22;54058;52.010;5.546;2023-04-06T02:13:29;5.30;65.60
67141;DHT22;54058;52.010;5.546;2023-04-06T02:15:55;5.30;65.60
67141;DHT22;54058;52.010;5.546;2023-04-06T02:18:20;5.30;65.70
67141;DHT22;54058;52.010;5.546;2023-04-06T02:20:46;5.30;65.40
67141;DHT22;54058;52.010;5.546;2023-04-06T02:23:11;5.30;65.20
67141;DHT22;54058;52.010;5.546;2023-04-06T02:25:37;5.30;65.30
67141;DHT22;54058;52.010;5.546;2023-04-06T02:28:03;5.30;65.00
67141;DHT22;54058;52.010;5.546;2023-04-06T02:30:28;5.20;65.00
67141;DHT22;54058;52.010;5.546;2023-04-06T02:32:54;5.30;65.10
67141;DHT22;54058;52.010;5.546;2023-04-06T02:35:20;5.30;65.00
67141;DHT22;54058;52.010;5.546;2023-04-06T02:37:46;5.30;65.10
67141;DHT22;54058;52.010;5.546;2023-04-06T02:40:13;5.30;64.80
67141;DHT22;54058;52.010;5.546;2023-04-06T02:42:39;5.40;64.90
67141;DHT22;54058;52.010;5.546;2023-04-06T02:45:04;5.40;64.80
67141;DHT22;54058;52.010;5.546;2023-04-06T02:47:30;5.40;64.80
67141;DHT22;54058;52.010;5.546;2023-04-06T02:49:55;5.40;64.80
67141;DHT22;54058;52.010;5.546;2023-04-06T02:52:21;5.50;64.80
67141;DHT22;54058;52.010;5.546;2023-04-06T02:54:46;5.50;64.90
67141;DHT22;54058;52.010;5.546;2023-04-06T02:57:12;5.40;64.60
67141;DHT22;54058;52.010;5.546;2023-04-06T02:59:38;5.50;64.70
67141;DHT22;54058;52.010;5.546;2023-04-06T03:02:03;5.50;64.40
67141;DHT22;54058;52.010;5.546;2023-04-06T03:04:28;5.50;64.40
67141;DHT22;54058;52.010;5.546;2023-04-06T03:06:54;5.50;64.50
67141;DHT22;54058;52.010;5.546;2023-04-06T03:09:20;5.60;64.50
67141;DHT22;54058;52.010;5.546;2023-04-06T03:11:46;5.50;64.40
67141;DHT22;54058;52.010;5.546;2023-04-06T03:14:11;5.60;64.50
67141;DHT22;54058;52.010;5.546;2023-04-06T03:16:37;5.60;64.20
67141;DHT22;54058;52.010;5.546;2023-04-06T03:19:02;5.50;64.20
67141;DHT22;54058;52.010;5.546;2023-04-06T03:21:28;5.60;64.30
67141;DHT22;54058;52.010;5.546;2023-04-06T03:23:53;5.60;64.50
67141;DHT22;54058;52.010;5.546;2023-04-06T03:26:19;5.60;64.40
67141;DHT22;54058;52.010;5.546;2023-04-06T03:28:44;5.50;64.40
67141;DHT22;54058;52.010;5.546;2023-04-06T03:31:10;5.50;64.30
67141;DHT22;54058;52.010;5.546;2023-04-06T03:33:35;5.50;64.30
67141;DHT22;54058;52.010;5.546;2023-04-06T03:36:01;5.50;64.50
67141;DHT22;54058;52.010;5.546;2023-04-06T03:38:26;5.60;64.90
67141;DHT22;54058;52.010;5.546;2023-04-06T03:40:52;5.60;65.00
67141;DHT22;54058;52.010;5.546;2023-04-06T03:43:17;5.70;65.10
67141;DHT22;54058;52.010;5.546;2023-04-06T03:45:43;5.70;65.00
67141;DHT22;54058;52.010;5.546;2023-04-06T03:48:08;5.80;65.20
67141;DHT22;54058;52.010;5.546;2023-04-06T03:50:34;5.90;65.10
67141;DHT22;54058;52.010;5.546;2023-04-06T03:52:59;5.90;64.90
67141;DHT22;54058;52.010;5.546;2023-04-06T03:55:28;5.90;64.90
67141;DHT22;54058;52.010;5.546;2023-04-06T03:57:53;5.90;64.50
67141;DHT22;54058;52.010;5.546;2023-04-06T04:00:19;5.80;64.70
67141;DHT22;54058;52.010;5.546;2023-04-06T04:02:45;5.80;64.20
67141;DHT22;54058;52.010;5.546;2023-04-06T04:05:10;5.80;64.70
67141;DHT22;54058;52.010;5.546;2023-04-06T04:07:36;5.90;65.00
67141;DHT22;54058;52.010;5.546;2023-04-06T04:10:02;5.90;64.70
67141;DHT22;54058;52.010;5.546;2023-04-06T04:12:27;5.90;64.20
67141;DHT22;54058;52.010;5.546;2023-04-06T04:14:53;5.90;64.70
67141;DHT22;54058;52.010;5.546;2023-04-06T04:17:19;5.90;64.40
67141;DHT22;54058;52.010;5.546;2023-04-06T04:19:44;5.90;64.70
67141;DHT22;54058;52.010;5.546;2023-04-06T04:22:10;5.90;64.80
67141;DHT22;54058;52.010;5.546;2023-04-06T04:24:35;5.90;64.70
67141;DHT22;54058;52.010;5.546;2023-04-06T04:27:01;5.90;64.80
67141;DHT22;54058;52.010;5.546;2023-04-06T04:29:26;5.90;65.10
67141;DHT22;54058;52.010;5.546;2023-04-06T04:31:52;6.00;65.00
67141;DHT22;54058;52.010;5.546;2023-04-06T04:34:19;6.00;65.20
67141;DHT22;54058;52.010;5.546;2023-04-06T04:36:50;6.00;64.90
67141;DHT22;54058;52.010;5.546;2023-04-06T04:39:16;6.00;65.00
67141;DHT22;54058;52.010;5.546;2023-04-06T04:41:41;6.00;65.30
67141;DHT22;54058;52.010;5.546;2023-04-06T04:44:07;5.90;65.10
67141;DHT22;54058;52.010;5.546;2023-04-06T04:46:32;6.00;64.90
67141;DHT22;54058;52.010;5.546;2023-04-06T04:48:58;5.90;65.00
67141;DHT22;54058;52.010;5.546;2023-04-06T04:51:23;5.90;65.40
67141;DHT22;54058;52.010;5.546;2023-04-06T04:53:50;6.00;65.90
67141;DHT22;54058;52.010;5.546;2023-04-06T04:56:15;6.00;65.60
67141;DHT22;54058;52.010;5.546;2023-04-06T04:58:41;6.00;65.60
67141;DHT22;54058;52.010;5.546;2023-04-06T05:01:06;6.00;65.40
67141;DHT22;54058;52.010;5.546;2023-04-06T05:03:32;6.00;65.20
67141;DHT22;54058;52.010;5.546;2023-04-06T05:05:57;5.90;65.10
67141;DHT22;54058;52.010;5.546;2023-04-06T05:08:23;5.90;65.20
67141;DHT22;54058;52.010;5.546;2023-04-06T05:10:49;5.90;65.50
67141;DHT22;54058;52.010;5.546;2023-04-06T05:13:14;5.90;65.40
67141;DHT22;54058;52.010;5.546;2023-04-06T05:15:40;5.90;65.40
67141;DHT22;54058;52.010;5.546;2023-04-06T05:18:09;5.80;65.30
67141;DHT22;54058;52.010;5.546;2023-04-06T05:20:35;5.80;65.80
67141;DHT22;54058;52.010;5.546;2023-04-06T05:23:00;5.90;66.00
67141;DHT22;54058;52.010;5.546;2023-04-06T05:25:26;6.00;66.00
67141;DHT22;54058;52.010;5.546;2023-04-06T05:27:52;6.00;65.60
67141;DHT22;54058;52.010;5.546;2023-04-06T05:30:17;6.00;65.50
67141;DHT22;54058;52.010;5.546;2023-04-06T05:32:43;6.10;65.60
67141;DHT22;54058;52.010;5.546;2023-04-06T05:35:09;6.10;65.60
67141;DHT22;54058;52.010;5.546;2023-04-06T05:37:35;6.20;65.80
67141;DHT22;54058;52.010;5.546;2023-04-06T05:40:00;6.30;66.00
67141;DHT22;54058;52.010;5.546;2023-04-06T05:42:26;6.30;65.90
67141;DHT22;54058;52.010;5.546;2023-04-06T05:44:52;6.40;65.80
67141;DHT22;54058;52.010;5.546;2023-04-06T05:47:18;6.40;65.40
67141;DHT22;54058;52.010;5.546;2023-04-06T05:49:43;6.40;65.50
67141;DHT22;54058;52.010;5.546;2023-04-06T05:52:09;6.50;65.40
67141;DHT22;54058;52.010;5.546;2023-04-06T05:54:36;6.60;65.40
67141;DHT22;54058;52.010;5.546;2023-04-06T05:57:02;6.60;65.40
67141;DHT22;54058;52.010;5.546;2023-04-06T05:59:29;6.70;65.50
67141;DHT22;54058;52.010;5.546;2023-04-06T06:01:54;6.80;65.70
67141;DHT22;54058;52.010;5.546;2023-04-06T06:04:20;6.80;64.90
67141;DHT22;54058;52.010;5.546;2023-04-06T06:06:45;6.90;64.80
67141;DHT22;54058;52.010;5.546;2023-04-06T06:09:11;6.90;64.70
67141;DHT22;54058;52.010;5.546;2023-04-06T06:11:37;7.00;65.40
67141;DHT22;54058;52.010;5.546;2023-04-06T06:14:02;7.10;65.10
67141;DHT22;54058;52.010;5.546;2023-04-06T06:16:28;7.10;64.80
67141;DHT22;54058;52.010;5.546;2023-04-06T06:18:53;7.20;65.10
67141;DHT22;54058;52.010;5.546;2023-04-06T06:21:19;7.20;64.50
67141;DHT22;54058;52.010;5.546;2023-04-06T06:23:44;7.30;64.70
67141;DHT22;54058;52.010;5.546;2023-04-06T06:26:12;7.30;64.40
67141;DHT22;54058;52.010;5.546;2023-04-06T06:28:38;7.30;64.20
67141;DHT22;54058;52.010;5.546;2023-04-06T06:31:03;7.30;64.20
67141;DHT22;54058;52.010;5.546;2023-04-06T06:33:29;7.30;64.80
67141;DHT22;54058;52.010;5.546;2023-04-06T06:35:54;7.30;64.70
67141;DHT22;54058;52.010;5.546;2023-04-06T06:38:20;7.30;64.90
67141;DHT22;54058;52.010;5.546;2023-04-06T06:40:46;7.40;65.10
67141;DHT22;54058;52.010;5.546;2023-04-06T06:43:11;7.50;65.20
67141;DHT22;54058;52.010;5.546;2023-04-06T06:45:37;7.50;64.80
67141;DHT22;54058;52.010;5.546;2023-04-06T06:48:02;7.50;64.70
67141;DHT22;54058;52.010;5.546;2023-04-06T06:50:28;7.60;64.80
67141;DHT22;54058;52.010;5.546;2023-04-06T06:52:54;7.70;64.90
67141;DHT22;54058;52.010;5.546;2023-04-06T06:55:19;7.80;65.00
67141;DHT22;54058;52.010;5.546;2023-04-06T06:57:45;7.90;65.00
67141;DHT22;54058;52.010;5.546;2023-04-06T07:00:14;8.00;64.30
67141;DHT22;54058;52.010;5.546;2023-04-06T07:02:39;8.00;64.80
67141;DHT22;54058;52.010;5.546;2023-04-06T07:05:05;8.20;64.30
67141;DHT22;54058;52.010;5.546;2023-04-06T07:07:31;8.40;64.40
67141;DHT22;54058;52.010;5.546;2023-04-06T07:09:57;8.60;64.00
67141;DHT22;54058;52.010;5.546;2023-04-06T07:12:22;8.80;64.10
67141;DHT22;54058;52.010;5.546;2023-04-06T07:14:48;8.90;63.70
67141;DHT22;54058;52.010;5.546;2023-04-06T07:17:13;9.10;63.70
67141;DHT22;54058;52.010;5.546;2023-04-06T07:19:39;9.20;63.30
67141;DHT22;54058;52.010;5.546;2023-04-06T07:22:04;9.30;63.00
67141;DHT22;54058;52.010;5.546;2023-04-06T07:24:30;9.30;60.30
67141;DHT22;54058;52.010;5.546;2023-04-06T07:26:55;9.30;61.40
67141;DHT22;54058;52.010;5.546;2023-04-06T07:29:21;9.30;62.00
67141;DHT22;54058;52.010;5.546;2023-04-06T07:31:48;9.40;62.00
67141;DHT22;54058;52.010;5.546;2023-04-06T07:34:14;9.40;61.10
67141;DHT22;54058;52.010;5.546;2023-04-06T07:36:40;9.30;61.50
67141;DHT22;54058;52.010;5.546;2023-04-06T07:39:06;9.30;61.70
67141;DHT22;54058;52.010;5.546;2023-04-06T07:41:32;9.20;61.80
67141;DHT22;54058;52.010;5.546;2023-04-06T07:43:57;9.20;62.40
67141;DHT22;54058;52.010;5.546;2023-04-06T07:46:23;9.20;62.10
67141;DHT22;54058;52.010;5.546;2023-04-06T07:48:48;9.20;60.40
67141;DHT22;54058;52.010;5.546;2023-04-06T07:51:15;9.10;61.90
67141;DHT22;54058;52.010;5.546;2023-04-06T07:53:43;9.10;62.20
67141;DHT22;54058;52.010;5.546;2023-04-06T07:56:09;9.10;61.70
67141;DHT22;54058;52.010;5.546;2023-04-06T07:58:35;9.10;61.90
67141;DHT22;54058;52.010;5.546;2023-04-06T08:01:01;9.10;60.20
67141;DHT22;54058;52.010;5.546;2023-04-06T08:03:27;9.10;62.20
67141;DHT22;54058;52.010;5.546;2023-04-06T08:05:52;9.20;62.10
67141;DHT22;54058;52.010;5.546;2023-04-06T08:08:18;9.20;59.80
67141;DHT22;54058;52.010;5.546;2023-04-06T08:10:43;9.20;61.10
67141;DHT22;54058;52.010;5.546;2023-04-06T08:13:09;9.20;62.10
67141;DHT22;54058;52.010;5.546;2023-04-06T08:15:35;9.30;62.30
67141;DHT22;54058;52.010;5.546;2023-04-06T08:18:00;9.30;61.60
67141;DHT22;54058;52.010;5.546;2023-04-06T08:20:26;9.30;62.00
67141;DHT22;54058;52.010;5.546;2023-04-06T08:22:52;9.30;62.40
67141;DHT22;54058;52.010;5.546;2023-04-06T08:25:17;9.40;61.20
67141;DHT22;54058;52.010;5.546;2023-04-06T08:27:43;9.40;61.70
67141;DHT22;54058;52.010;5.546;2023-04-06T08:30:08;9.50;62.20
67141;DHT22;54058;52.010;5.546;2023-04-06T08:32:34;9.60;61.30
67141;DHT22;54058;52.010;5.546;2023-04-06T08:35:00;9.60;60.60
67141;DHT22;54058;52.010;5.546;2023-04-06T08:37:25;9.70;61.60
67141;DHT22;54058;52.010;5.546;2023-04-06T08:39:51;9.80;60.70
67141;DHT22;54058;52.010;5.546;2023-04-06T08:42:18;9.80;61.90
67141;DHT22;54058;52.010;5.546;2023-04-06T08:44:44;9.80;61.80
67141;DHT22;54058;52.010;5.546;2023-04-06T08:47:11;9.90;62.30
67141;DHT22;54058;52.010;5.546;2023-04-06T08:49:37;10.00;62.30
67141;DHT22;54058;52.010;5.546;2023-04-06T08:52:07;10.20;62.70
67141;DHT22;54058;52.010;5.546;2023-04-06T08:54:36;10.40;61.70
67141;DHT22;54058;52.010;5.546;2023-04-06T08:57:02;10.50;62.10
67141;DHT22;54058;52.010;5.546;2023-04-06T08:59:28;10.60;61.10
67141;DHT22;54058;52.010;5.546;2023-04-06T09:01:53;10.60;61.40
67141;DHT22;54058;52.010;5.546;2023-04-06T09:04:19;10.60;60.00
67141;DHT22;54058;52.010;5.546;2023-04-06T09:06:45;10.70;60.90
67141;DHT22;54058;52.010;5.546;2023-04-06T09:09:10;10.80;60.80
67141;DHT22;54058;52.010;5.546;2023-04-06T09:11:44;10.90;60.90
67141;DHT22;54058;52.010;5.546;2023-04-06T09:14:09;11.00;61.40
67141;DHT22;54058;52.010;5.546;2023-04-06T09:16:38;11.10;61.10
67141;DHT22;54058;52.010;5.546;2023-04-06T09:19:04;11.30;61.10
67141;DHT22;54058;52.010;5.546;2023-04-06T09:21:30;11.40;60.70
67141;DHT22;54058;52.010;5.546;2023-04-06T09:23:59;11.40;59.10
67141;DHT22;54058;52.010;5.546;2023-04-06T09:26:25;11.40;60.00
67141;DHT22;54058;52.010;5.546;2023-04-06T09:28:53;11.40;59.80
67141;DHT22;54058;52.010;5.546;2023-04-06T09:31:26;11.40;60.70
67141;DHT22;54058;52.010;5.546;2023-04-06T09:33:52;11.50;59.00
67141;DHT22;54058;52.010;5.546;2023-04-06T09:36:18;11.50;60.50
67141;DHT22;54058;52.010;5.546;2023-04-06T09:38:54;11.60;60.80
67141;DHT22;54058;52.010;5.546;2023-04-06T09:41:40;11.70;59.30
67141;DHT22;54058;52.010;5.546;2023-04-06T09:44:06;11.70;59.60
67141;DHT22;54058;52.010;5.546;2023-04-06T09:46:33;11.70;60.40
67141;DHT22;54058;52.010;5.546;2023-04-06T09:48:59;11.70;60.50
67141;DHT22;54058;52.010;5.546;2023-04-06T09:51:25;11.70;60.50
67141;DHT22;54058;52.010;5.546;2023-04-06T09:53:54;11.70;60.50
67141;DHT22;54058;52.010;5.546;2023-04-06T09:56:24;11.70;60.60
67141;DHT22;54058;52.010;5.546;2023-04-06T09:58:53;11.70;61.20
67141;DHT22;54058;52.010;5.546;2023-04-06T10:01:20;11.80;60.90
67141;DHT22;54058;52.010;5.546;2023-04-06T10:06:17;11.90;60.50
67141;DHT22;54058;52.010;5.546;2023-04-06T10:08:44;12.00;60.50
67141;DHT22;54058;52.010;5.546;2023-04-06T10:11:10;12.00;60.20
67141;DHT22;54058;52.010;5.546;2023-04-06T10:13:36;12.00;61.00
67141;DHT22;54058;52.010;5.546;2023-04-06T10:16:02;12.10;60.60
67141;DHT22;54058;52.010;5.546;2023-04-06T10:18:28;12.20;61.30
67141;DHT22;54058;52.010;5.546;2023-04-06T10:23:20;12.30;61.50
67141;DHT22;54058;52.010;5.546;2023-04-06T10:28:19;12.50;61.40
67141;DHT22;54058;52.010;5.546;2023-04-06T10:30:45;12.60;61.90
67141;DHT22;54058;52.010;5.546;2023-04-06T10:33:14;12.70;60.70
67141;DHT22;54058;52.010;5.546;2023-04-06T10:35:40;12.70;61.50
67141;DHT22;54058;52.010;5.546;2023-04-06T10:38:05;12.70;61.80
67141;DHT22;54058;52.010;5.546;2023-04-06T10:40:31;12.80;62.00
67141;DHT22;54058;52.010;5.546;2023-04-06T10:43:06;12.80;62.50
67141;DHT22;54058;52.010;5.546;2023-04-06T10:45:32;12.70;62.80
67141;DHT22;54058;52.010;5.546;2023-04-06T10:47:58;12.60;63.60
67141;DHT22;54058;52.010;5.546;2023-04-06T10:50:24;12.50;64.30
67141;DHT22;54058;52.010;5.546;2023-04-06T10:53:00;12.40;65.00
67141;DHT22;54058;52.010;5.546;2023-04-06T10:55:26;12.30;66.00
67141;DHT22;54058;52.010;5.546;2023-04-06T10:57:52;12.20;66.40
67141;DHT22;54058;52.010;5.546;2023-04-06T11:00:18;12.20;66.80
67141;DHT22;54058;52.010;5.546;2023-04-06T11:02:44;12.20;67.30
67141;DHT22;54058;52.010;5.546;2023-04-06T11:05:11;12.20;67.60
67141;DHT22;54058;52.010;5.546;2023-04-06T11:07:36;12.10;67.90
67141;DHT22;54058;52.010;5.546;2023-04-06T11:10:02;12.10;68.20
67141;DHT22;54058;52.010;5.546;2023-04-06T11:12:28;12.10;68.20
67141;DHT22;54058;52.010;5.546;2023-04-06T11:17:30;11.90;68.70
67141;DHT22;54058;52.010;5.546;2023-04-06T11:19:56;11.80;69.10
67141;DHT22;54058;52.010;5.546;2023-04-06T11:22:22;11.70;69.20
67141;DHT22;54058;52.010;5.546;2023-04-06T11:24:48;11.60;69.60
67141;DHT22;54058;52.010;5.546;2023-04-06T11:27:17;11.60;69.90
67141;DHT22;54058;52.010;5.546;2023-04-06T11:29:43;11.70;70.10
67141;DHT22;54058;52.010;5.546;2023-04-06T11:32:09;11.70;70.40
67141;DHT22;54058;52.010;5.546;2023-04-06T11:34:35;11.60;70.40
67141;DHT22;54058;52.010;5.546;2023-04-06T11:37:03;11.60;70.70
67141;DHT22;54058;52.010;5.546;2023-04-06T11:39:32;11.60;70.60
67141;DHT22;54058;52.010;5.546;2023-04-06T11:42:02;11.60;70.80
67141;DHT22;54058;52.010;5.546;2023-04-06T11:46:57;11.60;71.30
67141;DHT22;54058;52.010;5.546;2023-04-06T11:49:26;11.60;72.10
67141;DHT22;54058;52.010;5.546;2023-04-06T11:51:51;11.60;71.20
67141;DHT22;54058;52.010;5.546;2023-04-06T11:54:17;11.60;71.40
67141;DHT22;54058;52.010;5.546;2023-04-06T11:56:45;11.50;71.00
67141;DHT22;54058;52.010;5.546;2023-04-06T11:59:11;11.50;71.30
67141;DHT22;54058;52.010;5.546;2023-04-06T12:01:44;11.40;70.80
67141;DHT22;54058;52.010;5.546;2023-04-06T12:04:10;11.30;71.10
67141;DHT22;54058;52.010;5.546;2023-04-06T12:06:35;11.30;71.60
67141;DHT22;54058;52.010;5.546;2023-04-06T12:09:01;11.20;71.70
67141;DHT22;54058;52.010;5.546;2023-04-06T12:11:27;11.20;71.60
67141;DHT22;54058;52.010;5.546;2023-04-06T12:13:53;11.10;72.40
67141;DHT22;54058;52.010;5.546;2023-04-06T12:16:18;11.00;71.90
67141;DHT22;54058;52.010;5.546;2023-04-06T12:18:44;11.00;72.30
67141;DHT22;54058;52.010;5.546;2023-04-06T12:21:10;10.90;72.40
67141;DHT22;54058;52.010;5.546;2023-04-06T12:23:36;10.80;73.40
67141;DHT22;54058;52.010;5.546;2023-04-06T12:26:02;10.80;73.40
67141;DHT22;54058;52.010;5.546;2023-04-06T12:28:28;10.80;74.00
67141;DHT22;54058;52.010;5.546;2023-04-06T12:30:54;10.80;73.50
67141;DHT22;54058;52.010;5.546;2023-04-06T12:33:20;10.80;73.60
67141;DHT22;54058;52.010;5.546;2023-04-06T12:35:46;10.80;73.40
67141;DHT22;54058;52.010;5.546;2023-04-06T12:38:11;10.80;73.70
67141;DHT22;54058;52.010;5.546;2023-04-06T12:40:37;10.80;73.70
67141;DHT22;54058;52.010;5.546;2023-04-06T12:43:03;10.80;74.00
67141;DHT22;54058;52.010;5.546;2023-04-06T12:45:30;10.70;74.30
67141;DHT22;54058;52.010;5.546;2023-04-06T12:47:55;10.60;73.60
67141;DHT22;54058;52.010;5.546;2023-04-06T12:50:21;10.70;73.90
67141;DHT22;54058;52.010;5.546;2023-04-06T12:52:47;10.70;74.20
67141;DHT22;54058;52.010;5.546;2023-04-06T12:55:12;10.70;74.50
67141;DHT22;54058;52.010;5.546;2023-04-06T12:57:38;10.60;74.30
67141;DHT22;54058;52.010;5.546;2023-04-06T13:00:04;10.60;74.70
67141;DHT22;54058;52.010;5.546;2023-04-06T13:02:30;10.60;74.50
67141;DHT22;54058;52.010;5.546;2023-04-06T13:04:56;10.60;74.80
67141;DHT22;54058;52.010;5.546;2023-04-06T13:07:21;10.60;74.70
67141;DHT22;54058;52.010;5.546;2023-04-06T13:09:47;10.60;74.60
67141;DHT22;54058;52.010;5.546;2023-04-06T13:12:15;10.60;74.90
67141;DHT22;54058;52.010;5.546;2023-04-06T13:14:40;10.60;74.50
67141;DHT22;54058;52.010;5.546;2023-04-06T13:17:06;10.60;76.00
67141;DHT22;54058;52.010;5.546;2023-04-06T13:19:32;10.60;75.20
67141;DHT22;54058;52.010;5.546;2023-04-06T13:21:57;10.50;75.00
67141;DHT22;54058;52.010;5.546;2023-04-06T13:24:23;10.40;76.90
67141;DHT22;54058;52.010;5.546;2023-04-06T13:26:49;10.40;76.00
67141;DHT22;54058;52.010;5.546;2023-04-06T13:29:14;10.40;76.40
67141;DHT22;54058;52.010;5.546;2023-04-06T13:31:40;10.30;76.60
67141;DHT22;54058;52.010;5.546;2023-04-06T13:34:05;10.30;76.50
67141;DHT22;54058;52.010;5.546;2023-04-06T13:36:31;10.40;77.40
67141;DHT22;54058;52.010;5.546;2023-04-06T13:38:57;10.30;77.40
67141;DHT22;54058;52.010;5.546;2023-04-06T13:41:23;10.30;76.60
67141;DHT22;54058;52.010;5.546;2023-04-06T13:43:50;10.30;77.60
67141;DHT22;54058;52.010;5.546;2023-04-06T13:46:16;10.20;78.20
67141;DHT22;54058;52.010;5.546;2023-04-06T13:48:42;10.10;77.70
67141;DHT22;54058;52.010;5.546;2023-04-06T13:51:11;10.10;78.80
67141;DHT22;54058;52.010;5.546;2023-04-06T13:53:37;10.10;77.80
67141;DHT22;54058;52.010;5.546;2023-04-06T13:56:02;10.10;78.00
67141;DHT22;54058;52.010;5.546;2023-04-06T13:58:28;10.10;77.70
67141;DHT22;54058;52.010;5.546;2023-04-06T14:00:53;10.10;77.40
67141;DHT22;54058;52.010;5.546;2023-04-06T14:03:19;10.10;77.60
67141;DHT22;54058;52.010;5.546;2023-04-06T14:05:45;10.10;77.30
67141;DHT22;54058;52.010;5.546;2023-04-06T14:08:11;10.00;79.10
67141;DHT22;54058;52.010;5.546;2023-04-06T14:10:39;9.90;78.70
67141;DHT22;54058;52.010;5.546;2023-04-06T14:13:06;9.90;80.00
67141;DHT22;54058;52.010;5.546;2023-04-06T14:15:31;9.90;78.70
67141;DHT22;54058;52.010;5.546;2023-04-06T14:17:57;9.90;78.40
67141;DHT22;54058;52.010;5.546;2023-04-06T14:20:22;9.90;80.40
67141;DHT22;54058;52.010;5.546;2023-04-06T14:22:48;9.90;79.80
67141;DHT22;54058;52.010;5.546;2023-04-06T14:25:14;9.80;80.30
67141;DHT22;54058;52.010;5.546;2023-04-06T14:27:41;9.90;80.30
67141;DHT22;54058;52.010;5.546;2023-04-06T14:30:07;9.80;80.20
67141;DHT22;54058;52.010;5.546;2023-04-06T14:32:33;9.90;79.90
67141;DHT22;54058;52.010;5.546;2023-04-06T14:34:59;9.80;79.60
67141;DHT22;54058;52.010;5.546;2023-04-06T14:37:24;9.80;81.40
67141;DHT22;54058;52.010;5.546;2023-04-06T14:39:50;9.80;80.10
67141;DHT22;54058;52.010;5.546;2023-04-06T14:42:15;9.70;79.80
67141;DHT22;54058;52.010;5.546;2023-04-06T14:44:41;9.70;80.00
67141;DHT22;54058;52.010;5.546;2023-04-06T14:47:09;9.70;82.60
67141;DHT22;54058;52.010;5.546;2023-04-06T14:49:35;9.70;82.90
67141;DHT22;54058;52.010;5.546;2023-04-06T14:52:01;9.60;81.80
67141;DHT22;54058;52.010;5.546;2023-04-06T14:54:26;9.60;82.30
67141;DHT22;54058;52.010;5.546;2023-04-06T14:56:52;9.60;82.70
67141;DHT22;54058;52.010;5.546;2023-04-06T14:59:17;9.60;80.90
67141;DHT22;54058;52.010;5.546;2023-04-06T15:01:43;9.70;81.70
67141;DHT22;54058;52.010;5.546;2023-04-06T15:04:08;9.70;82.00
67141;DHT22;54058;52.010;5.546;2023-04-06T15:06:34;9.70;82.30
67141;DHT22;54058;52.010;5.546;2023-04-06T15:08:59;9.60;83.20
67141;DHT22;54058;52.010;5.546;2023-04-06T15:11:25;9.60;83.80
67141;DHT22;54058;52.010;5.546;2023-04-06T15:13:51;9.60;82.50
67141;DHT22;54058;52.010;5.546;2023-04-06T15:16:16;9.60;81.40
67141;DHT22;54058;52.010;5.546;2023-04-06T15:18:42;9.60;82.40
67141;DHT22;54058;52.010;5.546;2023-04-06T15:21:07;9.60;82.80
67141;DHT22;54058;52.010;5.546;2023-04-06T15:23:33;9.60;83.70
67141;DHT22;54058;52.010;5.546;2023-04-06T15:25:59;9.60;83.10
67141;DHT22;54058;52.010;5.546;2023-04-06T15:28:25;9.60;84.60
67141;DHT22;54058;52.010;5.546;2023-04-06T15:30:51;9.60;82.40
67141;DHT22;54058;52.010;5.546;2023-04-06T15:33:16;9.60;82.70
67141;DHT22;54058;52.010;5.546;2023-04-06T15:35:42;9.60;83.40
67141;DHT22;54058;52.010;5.546;2023-04-06T15:38:08;9.60;84.30
67141;DHT22;54058;52.010;5.546;2023-04-06T15:40:41;9.60;86.40
67141;DHT22;54058;52.010;5.546;2023-04-06T15:43:07;9.60;84.60
67141;DHT22;54058;52.010;5.546;2023-04-06T15:45:32;9.60;84.20